Time;durP1;ratioP1;P1;durP2;ratioP2;P2;SDS_P1;SDS_P2;PMS_P1;PMS_P2;Temp;Humidity;BMP_temperature;BMP_pressure;BME280_temperature;BME280_humidity;BME280_pressure;Samples;Min_cycle;Max_cycle;Signal;HPM_P1;HPM_P2
2022/05/26 00:01:37;;;;;;;5.70;3.27;;;18.10;33.90;;;;;;5017238;28;20213;-75
2022/05/26 00:04:03;;;;;;;5.60;3.10;;;18.20;34.20;;;;;;5020290;28;21071;-75
2022/05/26 00:06:30;;;;;;;5.90;3.23;;;18.20;32.50;;;;;;5020330;28;20915;-75
2022/05/26 00:08:57;;;;;;;6.03;3.17;;;18.20;35.60;;;;;;5029993;28;20415;-74
2022/05/26 00:11:29;;;;;;;9.13;3.80;;;18.40;32.50;;;;;;5023804;28;20835;-75
2022/05/26 00:13:56;;;;;;;4.67;3.10;;;18.40;32.70;;;;;;5013670;28;20419;-75
2022/05/26 00:16:21;;;;;;;8.00;3.57;;;18.40;33.20;;;;;;5016864;28;20431;-76
2022/05/26 00:18:48;;;;;;;5.60;3.43;;;18.20;33.70;;;;;;5018025;28;20436;-76
2022/05/26 00:21:14;;;;;;;11.10;3.53;;;18.40;35.00;;;;;;5013297;28;20656;-77
2022/05/26 00:23:39;;;;;;;6.33;3.20;;;18.20;34.80;;;;;;5020110;28;20460;-75
2022/05/26 00:26:05;;;;;;;6.00;3.60;;;18.20;34.90;;;;;;5024843;28;20438;-75
2022/05/26 00:28:31;;;;;;;7.80;3.20;;;18.10;35.70;;;;;;5024554;28;20196;-76
2022/05/26 00:30:58;;;;;;;5.07;3.57;;;18.10;35.20;;;;;;5026775;28;20288;-76
2022/05/26 00:33:24;;;;;;;8.87;3.33;;;18.10;34.70;;;;;;5022241;28;20790;-75
2022/05/26 00:35:50;;;;;;;10.93;3.97;;;18.00;36.80;;;;;;5024519;28;20427;-76
2022/05/26 00:38:16;;;;;;;6.33;3.67;;;18.20;36.50;;;;;;5023781;28;20196;-76
2022/05/26 00:40:43;;;;;;;7.93;3.80;;;17.90;36.00;;;;;;5020793;28;20488;-76
2022/05/26 00:43:10;;;;;;;9.70;3.80;;;18.00;36.70;;;;;;5012546;28;20494;-77
2022/05/26 00:45:38;;;;;;;9.27;5.00;;;17.90;35.50;;;;;;5017160;28;20528;-77
2022/05/26 00:48:11;;;;;;;10.03;4.50;;;17.80;37.00;;;;;;5015835;28;20445;-76
2022/05/26 00:50:49;;;;;;;6.50;4.13;;;18.20;36.60;;;;;;5019143;28;20493;-77
2022/05/26 00:53:21;;;;;;;8.00;4.50;;;17.90;35.80;;;;;;5012384;28;20431;-76
2022/05/26 00:55:56;;;;;;;10.10;4.30;;;17.80;37.80;;;;;;5012784;28;20902;-77
2022/05/26 00:58:33;;;;;;;8.67;4.57;;;17.80;36.50;;;;;;5011273;28;20525;-76
2022/05/26 01:01:01;;;;;;;11.77;5.20;;;17.70;37.30;;;;;;5025634;28;20453;-75
2022/05/26 01:03:38;;;;;;;8.80;5.00;;;17.80;38.00;;;;;;5032179;28;20501;-76
2022/05/26 01:06:15;;;;;;;9.47;5.30;;;17.80;37.60;;;;;;5032010;28;20427;-76
2022/05/26 01:08:50;;;;;;;6.97;4.80;;;17.80;38.30;;;;;;5026869;28;20442;-75
2022/05/26 01:11:16;;;;;;;8.73;3.87;;;18.00;35.10;;;;;;5022379;28;20475;-75
2022/05/26 01:13:58;;;;;;;11.07;4.40;;;18.10;32.40;;;;;;5023659;28;20417;-75
2022/05/26 01:16:35;;;;;;;5.73;4.47;;;18.10;32.90;;;;;;5026210;28;20526;-76
2022/05/26 01:19:39;;;;;;;10.03;4.53;;;18.00;36.40;;;;;;5021767;28;20422;-76
2022/05/26 01:22:42;;;;;;;7.10;4.00;;;17.80;35.60;;;;;;5016305;28;20465;-76
2022/05/26 01:25:14;;;;;;;7.40;4.20;;;17.60;36.30;;;;;;5013746;28;20416;-76
2022/05/26 01:27:44;;;;;;;7.30;4.10;;;17.40;36.50;;;;;;5012100;28;20825;-75
2022/05/26 01:30:19;;;;;;;9.33;4.27;;;17.40;37.00;;;;;;5016753;28;20979;-75
2022/05/26 01:33:12;;;;;;;10.40;4.97;;;17.40;37.10;;;;;;5018263;28;20458;-76
2022/05/26 01:35:38;;;;;;;16.30;5.20;;;17.30;37.50;;;;;;5019769;28;20415;-75
2022/05/26 01:38:06;;;;;;;9.53;5.30;;;17.20;37.10;;;;;;5031681;28;20907;-75
2022/05/26 01:40:47;;;;;;;8.00;4.97;;;17.20;37.30;;;;;;5021350;28;20192;-76
2022/05/26 01:43:33;;;;;;;8.67;4.50;;;17.30;37.50;;;;;;5013483;28;20487;-76
2022/05/26 01:46:20;;;;;;;6.33;4.30;;;17.20;36.80;;;;;;5011495;28;20444;-76
2022/05/26 01:49:07;;;;;;;8.23;3.63;;;17.30;38.30;;;;;;5011619;28;20504;-75
2022/05/26 01:52:01;;;;;;;6.00;3.40;;;17.20;36.70;;;;;;5015792;28;20475;-76
2022/05/26 01:54:52;;;;;;;5.20;3.90;;;17.20;36.90;;;;;;5003322;28;20439;-75
2022/05/26 01:57:24;;;;;;;8.13;3.57;;;17.00;37.10;;;;;;5011348;28;20422;-75
2022/05/26 01:59:59;;;;;;;6.00;3.77;;;16.90;37.40;;;;;;5016525;28;20489;-73
2022/05/26 02:02:31;;;;;;;4.70;3.33;;;16.90;36.20;;;;;;5016165;28;21269;-76
2022/05/26 02:05:20;;;;;;;10.37;3.40;;;17.00;38.90;;;;;;5031197;28;20821;-76
2022/05/26 02:07:54;;;;;;;6.80;3.40;;;16.90;38.80;;;;;;5014636;28;20456;-76
2022/05/26 02:10:33;;;;;;;7.23;3.67;;;16.90;37.70;;;;;;5018863;28;20558;-76
2022/05/26 02:13:14;;;;;;;4.20;3.13;;;17.00;38.90;;;;;;5019532;28;20478;-75
2022/05/26 02:15:50;;;;;;;5.10;3.33;;;16.90;38.80;;;;;;5031194;28;20403;-75
2022/05/26 02:18:20;;;;;;;3.80;3.03;;;17.10;38.80;;;;;;5029089;28;20419;-76
2022/05/26 02:20:54;;;;;;;5.80;3.37;;;16.90;38.20;;;;;;5014131;28;20443;-76
2022/05/26 02:23:40;;;;;;;4.80;3.10;;;17.00;37.00;;;;;;5019219;28;20443;-76
2022/05/26 02:26:07;;;;;;;6.93;2.70;;;16.90;37.80;;;;;;5011539;28;20424;-76
2022/05/26 02:29:51;;;;;;;6.60;3.30;;;16.90;38.40;;;;;;5015417;28;20518;-75
2022/05/26 02:31:23;;;;;;;5.07;3.57;;;;;;;;;;5014366;28;20485;-76
2022/05/26 02:33:55;;;;;;;4.20;2.90;;;17.00;37.10;;;;;;5020637;28;20742;-76
2022/05/26 02:36:22;;;;;;;7.23;3.20;;;17.10;36.40;;;;;;5022645;28;20419;-75
2022/05/26 02:38:48;;;;;;;8.13;3.00;;;17.10;37.60;;;;;;5030967;28;20439;-76
2022/05/26 02:41:14;;;;;;;4.47;3.23;;;17.10;37.50;;;;;;5020702;28;21014;-76
2022/05/26 02:43:41;;;;;;;8.43;3.40;;;16.80;38.70;;;;;;5017646;28;20291;-76
2022/05/26 02:46:15;;;;;;;5.27;3.50;;;16.80;39.60;;;;;;5010970;28;20747;-76
2022/05/26 02:49:05;;;;;;;11.83;3.63;;;16.80;38.20;;;;;;5010827;28;20928;-76
2022/05/26 02:51:42;;;;;;;6.93;3.20;;;16.70;38.50;;;;;;5009539;28;20561;-75
2022/05/26 02:54:38;;;;;;;6.57;3.00;;;16.70;38.00;;;;;;5022962;28;20438;-75
2022/05/26 02:57:19;;;;;;;5.80;3.50;;;16.70;38.10;;;;;;5024414;28;20443;-75
2022/05/26 03:00:00;;;;;;;4.90;3.17;;;16.70;38.60;;;;;;5029482;28;20950;-76
2022/05/26 03:02:35;;;;;;;5.20;3.33;;;16.40;39.20;;;;;;5022277;28;20977;-75
2022/05/26 03:05:04;;;;;;;4.83;3.00;;;16.60;39.80;;;;;;5031668;28;20894;-75
2022/05/26 03:07:32;;;;;;;6.63;2.97;;;16.50;39.30;;;;;;5034353;28;20411;-75
2022/05/26 03:10:04;;;;;;;4.67;3.00;;;16.50;38.90;;;;;;5034578;28;20459;-76
2022/05/26 03:12:33;;;;;;;5.27;3.23;;;16.40;40.30;;;;;;5021046;28;20509;-76
2022/05/26 03:15:00;;;;;;;7.37;3.50;;;16.30;40.60;;;;;;5014166;28;20477;-75
2022/05/26 03:17:26;;;;;;;8.13;3.40;;;16.30;39.70;;;;;;5014649;28;20426;-76
2022/05/26 03:19:52;;;;;;;5.27;2.90;;;16.30;40.30;;;;;;5014233;28;20427;-76
2022/05/26 03:22:18;;;;;;;5.53;3.03;;;16.30;39.90;;;;;;5016409;28;20446;-76
2022/05/26 03:24:44;;;;;;;7.13;3.57;;;16.60;38.50;;;;;;5022293;28;20188;-74
2022/05/26 03:27:11;;;;;;;4.33;2.80;;;16.50;39.80;;;;;;5026582;28;20441;-75
2022/05/26 03:29:37;;;;;;;5.83;3.20;;;16.40;40.40;;;;;;5012171;28;20436;-75
2022/05/26 03:32:03;;;;;;;4.60;3.37;;;16.40;40.00;;;;;;5020434;28;21030;-75
2022/05/26 03:42:43;;;;;;;9.40;3.80;;;16.30;41.50;;;;;;5027990;28;20572;-76
2022/05/26 03:45:10;;;;;;;9.03;4.17;;;16.00;40.40;;;;;;5022210;28;20923;-75
2022/05/26 03:47:35;;;;;;;7.90;4.17;;;16.20;41.40;;;;;;5022489;28;20408;-75
2022/05/26 03:50:01;;;;;;;9.13;4.40;;;16.20;41.30;;;;;;5013573;28;20558;-75
2022/05/26 03:52:27;;;;;;;9.50;5.00;;;16.10;40.90;;;;;;5025288;28;20192;-75
2022/05/26 03:54:53;;;;;;;9.10;4.43;;;16.00;41.30;;;;;;5021700;28;20529;-75
2022/05/26 03:57:26;;;;;;;5.70;4.20;;;16.00;42.20;;;;;;5013679;28;20604;-75
2022/05/26 03:59:52;;;;;;;6.73;4.17;;;15.90;42.10;;;;;;5013472;28;20256;-75
2022/05/26 04:02:17;;;;;;;13.30;4.73;;;16.00;41.90;;;;;;5013094;28;20541;-77
2022/05/26 04:04:44;;;;;;;10.27;4.70;;;16.10;43.00;;;;;;5020763;28;20184;-74
2022/05/26 04:07:10;;;;;;;11.83;5.33;;;16.10;42.40;;;;;;5016868;28;20185;-75
2022/05/26 04:09:36;;;;;;;12.33;5.53;;;16.20;42.60;;;;;;5012188;28;20412;-76
2022/05/26 04:12:04;;;;;;;10.40;5.10;;;16.10;42.70;;;;;;5013220;28;21032;-75
2022/05/26 04:14:31;;;;;;;9.07;5.30;;;16.20;42.20;;;;;;5012192;28;20559;-76
2022/05/26 04:16:58;;;;;;;10.70;5.70;;;16.10;43.60;;;;;;5018330;28;20486;-75
2022/05/26 04:19:24;;;;;;;9.20;5.60;;;16.30;42.30;;;;;;5018896;28;20432;-76
2022/05/26 04:24:35;;;;;;;10.50;4.70;;;16.20;41.10;;;;;;5033035;28;20413;-74
2022/05/26 04:27:01;;;;;;;8.40;4.87;;;16.20;39.60;;;;;;5020307;28;20438;-76
2022/05/26 04:29:28;;;;;;;10.23;4.63;;;16.30;39.30;;;;;;5012802;28;20290;-77
2022/05/26 04:31:53;;;;;;;5.77;4.00;;;16.40;39.70;;;;;;5012898;28;20518;-77
2022/05/26 04:34:20;;;;;;;11.90;5.20;;;16.40;40.40;;;;;;5010918;28;20916;-76
2022/05/26 04:36:46;;;;;;;5.57;4.30;;;16.50;41.50;;;;;;5020883;28;20514;-76
2022/05/26 04:39:14;;;;;;;13.83;4.30;;;16.60;40.80;;;;;;5022815;28;20427;-77
2022/05/26 04:41:41;;;;;;;6.73;5.00;;;16.70;41.10;;;;;;5020781;28;20506;-77
2022/05/26 04:44:09;;;;;;;11.27;6.07;;;16.70;40.10;;;;;;5030530;28;20420;-77
2022/05/26 04:46:36;;;;;;;77.03;57.97;;;16.80;39.50;;;;;;5022657;28;20474;-76
2022/05/26 04:49:03;;;;;;;69.03;52.50;;;16.70;38.60;;;;;;5023256;28;20964;-77
2022/05/26 04:51:28;;;;;;;44.27;35.03;;;16.70;38.00;;;;;;5012113;28;20463;-75
2022/05/26 04:53:55;;;;;;;43.03;32.17;;;16.80;38.70;;;;;;5012674;28;20963;-77
2022/05/26 04:56:22;;;;;;;27.30;21.07;;;17.00;39.40;;;;;;5014980;28;20958;-77
2022/05/26 04:58:50;;;;;;;14.63;9.30;;;17.00;38.80;;;;;;5024728;28;20459;-76
2022/05/26 05:01:20;;;;;;;13.70;9.50;;;17.00;36.80;;;;;;5017098;28;20829;-74
2022/05/26 05:03:47;;;;;;;11.70;7.93;;;17.10;38.10;;;;;;5019717;28;20429;-76
2022/05/26 05:06:14;;;;;;;15.20;8.53;;;17.10;38.10;;;;;;5031187;28;20412;-76
2022/05/26 05:08:41;;;;;;;14.90;9.47;;;17.20;37.80;;;;;;5032897;28;20404;-77
2022/05/26 05:11:08;;;;;;;20.10;10.07;;;17.30;39.10;;;;;;5021811;28;20471;-76
2022/05/26 05:13:34;;;;;;;14.60;8.80;;;17.30;39.10;;;;;;5013764;28;20460;-76
2022/05/26 05:16:08;;;;;;;11.10;8.30;;;17.40;37.30;;;;;;5022581;28;20435;-74
2022/05/26 05:18:33;;;;;;;12.20;8.27;;;17.50;36.30;;;;;;5023476;28;20408;-75
2022/05/26 05:21:04;;;;;;;13.70;8.30;;;17.50;36.40;;;;;;5013392;28;20428;-75
2022/05/26 05:23:31;;;;;;;18.23;7.77;;;17.80;36.60;;;;;;5015332;28;20209;-75
2022/05/26 05:25:59;;;;;;;10.73;7.00;;;17.60;36.00;;;;;;5023160;28;20473;-75
2022/05/26 05:28:29;;;;;;;9.47;6.20;;;17.30;36.60;;;;;;5014099;28;20961;-76
2022/05/26 05:31:26;;;;;;;12.00;6.70;;;17.20;37.90;;;;;;5023534;28;20458;-74
2022/05/26 05:34:01;;;;;;;8.90;5.43;;;17.50;38.50;;;;;;5024013;28;20509;-75
2022/05/26 05:36:30;;;;;;;7.53;5.17;;;17.50;36.70;;;;;;5017145;28;20504;-74
2022/05/26 05:38:59;;;;;;;7.70;4.93;;;17.80;36.10;;;;;;5012941;28;20776;-74
2022/05/26 05:41:26;;;;;;;7.70;4.73;;;17.80;36.50;;;;;;5011439;28;20966;-74
2022/05/26 05:43:52;;;;;;;10.10;4.30;;;17.80;36.90;;;;;;5011105;28;20473;-74
2022/05/26 05:46:21;;;;;;;6.77;4.53;;;17.50;37.00;;;;;;5023119;28;20420;-74
2022/05/26 05:48:47;;;;;;;7.50;4.43;;;17.40;38.40;;;;;;5024857;28;20447;-74
2022/05/26 05:51:14;;;;;;;11.80;4.80;;;17.70;37.50;;;;;;5012798;28;20460;-75
2022/05/26 05:53:40;;;;;;;9.30;4.80;;;18.10;37.60;;;;;;5010211;28;20477;-75
2022/05/26 05:56:06;;;;;;;7.20;4.80;;;17.70;36.90;;;;;;5021051;28;20416;-73
2022/05/26 05:58:32;;;;;;;7.07;4.70;;;17.90;35.90;;;;;;5028415;28;20423;-74
2022/05/26 06:00:57;;;;;;;4.90;3.70;;;18.00;36.30;;;;;;5011559;28;20178;-76
2022/05/26 06:03:23;;;;;;;7.60;4.00;;;18.30;34.00;;;;;;5011774;28;20207;-74
2022/05/26 06:05:49;;;;;;;8.23;3.20;;;18.10;36.40;;;;;;5016464;28;20194;-75
2022/05/26 06:08:14;;;;;;;9.80;2.70;;;17.90;34.70;;;;;;5023228;28;20179;-75
2022/05/26 06:10:40;;;;;;;10.50;2.70;;;17.70;34.50;;;;;;5015173;28;20211;-74
2022/05/26 06:13:06;;;;;;;7.00;2.87;;;17.50;34.40;;;;;;5011902;28;20228;-76
2022/05/26 06:15:33;;;;;;;4.17;2.80;;;17.70;32.90;;;;;;5016860;28;20188;-76
2022/05/26 06:17:59;;;;;;;5.40;2.67;;;17.70;33.60;;;;;;5019599;28;20198;-74
2022/05/26 06:20:26;;;;;;;9.40;3.00;;;18.00;32.40;;;;;;5022766;28;20438;-75
2022/05/26 06:22:52;;;;;;;11.00;2.70;;;18.10;31.00;;;;;;5031202;28;21033;-77
2022/05/26 06:25:19;;;;;;;5.20;2.90;;;18.00;32.40;;;;;;5029969;28;20408;-75
2022/05/26 06:30:30;;;;;;;4.47;2.73;;;17.90;33.50;;;;;;4993524;28;20509;-76
2022/05/26 06:38:34;;;;;;;4.13;2.33;;;19.20;30.20;;;;;;5022202;28;20457;-75
2022/05/26 06:42:05;;;;;;;5.60;3.10;;;18.90;29.90;;;;;;5034895;28;20410;-74
2022/05/26 06:43:46;;;;;;;8.83;2.70;;;18.50;30.30;;;;;;5014874;28;20461;-75
2022/05/26 06:46:11;;;;;;;3.97;2.40;;;18.40;31.10;;;;;;5027560;28;20920;-74
2022/05/26 06:48:37;;;;;;;9.13;2.60;;;18.70;30.00;;;;;;5015365;28;20534;-76
2022/05/26 06:51:05;;;;;;;7.37;2.50;;;19.00;29.90;;;;;;5014979;28;20253;-75
2022/05/26 06:53:31;;;;;;;8.30;2.43;;;18.70;29.60;;;;;;5014095;28;20213;-76
2022/05/26 06:55:57;;;;;;;12.83;2.80;;;18.80;30.40;;;;;;5018022;28;20439;-75
2022/05/26 06:58:22;;;;;;;3.80;2.50;;;19.30;29.00;;;;;;5021858;28;20234;-75
2022/05/26 07:00:48;;;;;;;9.13;2.80;;;19.50;29.60;;;;;;5011157;28;20591;-76
2022/05/26 07:03:15;;;;;;;5.00;2.40;;;19.70;29.00;;;;;;5009053;28;20206;-72
2022/05/26 07:05:40;;;;;;;3.83;2.40;;;19.40;29.60;;;;;;5006990;28;20196;-76
2022/05/26 07:08:06;;;;;;;5.87;2.53;;;19.00;29.70;;;;;;5023549;28;20814;-80
2022/05/26 07:10:34;;;;;;;11.77;2.53;;;19.00;29.00;;;;;;5016529;28;20204;-78
2022/05/26 07:13:00;;;;;;;5.90;2.80;;;19.50;28.80;;;;;;5016068;28;20188;-79
2022/05/26 07:15:26;;;;;;;3.00;2.20;;;19.70;28.40;;;;;;5016058;28;20770;-79
2022/05/26 07:17:51;;;;;;;3.77;2.43;;;18.70;28.40;;;;;;5014640;28;20482;-78
2022/05/26 07:20:17;;;;;;;6.63;2.40;;;18.70;27.80;;;;;;5016493;28;20944;-77
2022/05/26 07:22:43;;;;;;;5.30;2.70;;;18.90;29.00;;;;;;5014693;28;20693;-78
2022/05/26 07:25:10;;;;;;;4.43;2.40;;;19.40;29.00;;;;;;5017961;28;20411;-77
2022/05/26 07:27:35;;;;;;;8.63;2.40;;;19.10;27.50;;;;;;5014787;28;20674;-78
2022/05/26 07:30:01;;;;;;;4.30;2.50;;;19.10;27.40;;;;;;5014888;28;20503;-78
2022/05/26 07:32:27;;;;;;;15.03;2.67;;;18.90;28.40;;;;;;5014420;28;20196;-79
2022/05/26 07:34:52;;;;;;;7.53;2.47;;;19.10;28.10;;;;;;5014730;28;20173;-78
2022/05/26 07:42:47;;;;;;;12.07;2.60;;;19.50;26.10;;;;;;5014152;28;20496;-78
2022/05/26 07:45:13;;;;;;;9.10;2.90;;;19.20;27.20;;;;;;5015371;28;20405;-78
2022/05/26 07:47:39;;;;;;;5.90;2.27;;;19.50;27.50;;;;;;5014245;28;20179;-77
2022/05/26 07:50:09;;;;;;;5.87;2.50;;;19.50;26.50;;;;;;5013868;28;20998;-77
2022/05/26 07:52:35;;;;;;;3.40;2.33;;;19.60;26.00;;;;;;5013881;28;20429;-78
2022/05/26 07:55:01;;;;;;;3.60;2.30;;;19.70;27.60;;;;;;5014346;28;20412;-78
2022/05/26 07:57:28;;;;;;;5.10;2.53;;;19.90;26.90;;;;;;5014643;28;20234;-79
2022/05/26 07:59:58;;;;;;;4.00;2.43;;;20.10;26.20;;;;;;5014024;28;20185;-79
2022/05/26 08:02:24;;;;;;;2.93;2.30;;;20.20;26.90;;;;;;5013928;28;20806;-76
2022/05/26 08:04:50;;;;;;;3.27;2.23;;;19.80;27.50;;;;;;5014180;28;20420;-78
2022/05/26 08:07:16;;;;;;;3.87;2.20;;;19.40;28.10;;;;;;5015025;28;20414;-79
2022/05/26 08:09:42;;;;;;;5.97;2.50;;;19.70;28.30;;;;;;5014856;28;20181;-78
2022/05/26 08:12:10;;;;;;;3.63;2.10;;;20.30;27.50;;;;;;5012771;28;20366;-78
2022/05/26 08:14:37;;;;;;;5.10;2.20;;;20.70;27.10;;;;;;5013797;28;20420;-79
2022/05/26 08:17:02;;;;;;;3.80;2.23;;;20.70;27.70;;;;;;5014523;28;21043;-79
2022/05/26 08:19:29;;;;;;;3.63;2.57;;;20.00;27.60;;;;;;5015061;28;20493;-78
2022/05/26 08:21:55;;;;;;;6.23;2.73;;;19.80;27.70;;;;;;5013637;28;20201;-79
2022/05/26 08:24:21;;;;;;;5.77;3.20;;;19.90;28.30;;;;;;5013811;28;20459;-79
2022/05/26 08:26:47;;;;;;;2.90;2.20;;;20.20;27.50;;;;;;5013699;28;20940;-79
2022/05/26 08:29:13;;;;;;;11.03;2.30;;;20.30;27.60;;;;;;5013584;28;20413;-79
2022/05/26 08:31:39;;;;;;;5.43;2.47;;;20.10;27.30;;;;;;5012808;28;20509;-79
2022/05/26 08:34:05;;;;;;;3.73;2.30;;;20.10;27.50;;;;;;5013268;28;20633;-79
2022/05/26 08:36:34;;;;;;;2.73;2.00;;;20.20;27.90;;;;;;5013326;28;20281;-79
2022/05/26 08:39:00;;;;;;;6.40;2.30;;;20.30;27.60;;;;;;5009228;28;20428;-79
2022/05/26 08:41:35;;;;;;;3.90;2.23;;;20.00;27.30;;;;;;5013019;28;20435;-79
2022/05/26 08:44:07;;;;;;;5.40;2.33;;;19.90;27.80;;;;;;5013259;28;20633;-79
2022/05/26 08:46:46;;;;;;;6.00;2.30;;;20.00;27.20;;;;;;5013446;28;20893;-79
2022/05/26 08:49:26;;;;;;;4.27;2.20;;;20.70;26.80;;;;;;5012763;28;20927;-79
2022/05/26 08:51:57;;;;;;;8.83;2.30;;;20.40;27.00;;;;;;5012463;28;20488;-79
2022/05/26 08:54:33;;;;;;;6.73;2.50;;;20.70;27.30;;;;;;5014002;28;20447;-78
2022/05/26 08:57:00;;;;;;;5.60;2.20;;;20.60;25.90;;;;;;5017714;28;20462;-78
2022/05/26 08:59:48;;;;;;;4.73;2.30;;;21.00;26.70;;;;;;5017575;28;20415;-78
2022/05/26 09:02:26;;;;;;;4.47;2.20;;;21.30;25.80;;;;;;5017261;28;20976;-79
2022/05/26 09:04:54;;;;;;;3.30;2.07;;;21.80;26.00;;;;;;5017997;28;20966;-79
2022/05/26 09:13:26;;;;;;;3.87;2.10;;;20.60;26.40;;;;;;5016502;28;20416;-79
2022/05/26 09:15:52;;;;;;;8.53;2.50;;;21.10;25.80;;;;;;5017626;28;20417;-78
2022/05/26 09:18:21;;;;;;;4.17;2.17;;;20.60;25.90;;;;;;5016917;28;20407;-78
2022/05/26 09:20:48;;;;;;;3.70;2.33;;;20.60;26.50;;;;;;5016315;28;20610;-78
2022/05/26 09:23:24;;;;;;;8.17;2.50;;;20.30;27.00;;;;;;5016046;28;20443;-78
2022/05/26 09:25:55;;;;;;;6.70;2.40;;;20.10;27.70;;;;;;5016211;28;20404;-78
2022/05/26 09:28:32;;;;;;;4.03;2.27;;;19.80;27.60;;;;;;5016024;28;20406;-77
2022/05/26 09:31:29;;;;;;;5.83;2.50;;;20.00;28.20;;;;;;5016080;28;20456;-77
2022/05/26 09:34:15;;;;;;;7.73;2.30;;;20.30;27.40;;;;;;5016315;28;20407;-78
2022/05/26 09:36:52;;;;;;;2.63;2.07;;;20.50;25.90;;;;;;5016972;28;20438;-78
2022/05/26 09:39:34;;;;;;;3.70;2.20;;;20.50;27.10;;;;;;5016531;28;20415;-78
2022/05/26 09:42:03;;;;;;;4.57;2.50;;;20.20;25.70;;;;;;5018759;28;20452;-78
2022/05/26 09:44:44;;;;;;;3.23;2.00;;;20.40;26.10;;;;;;5016030;28;20783;-78
2022/05/26 09:47:32;;;;;;;3.43;2.00;;;20.40;26.80;;;;;;5017396;28;20421;-77
2022/05/26 09:50:00;;;;;;;4.77;2.60;;;20.60;26.40;;;;;;5016188;28;20420;-78
2022/05/26 09:52:38;;;;;;;13.40;2.63;;;20.30;26.20;;;;;;5016376;28;20427;-78
2022/05/26 09:55:40;;;;;;;2.80;2.00;;;20.30;27.50;;;;;;5015926;28;20416;-78
2022/05/26 09:58:13;;;;;;;3.07;2.27;;;20.20;26.90;;;;;;5016551;28;20397;-78
2022/05/26 10:00:47;;;;;;;4.10;2.07;;;20.40;26.70;;;;;;5016547;28;20422;-78
2022/05/26 10:03:31;;;;;;;4.70;2.10;;;20.50;27.10;;;;;;5015929;28;20472;-78
2022/05/26 10:06:16;;;;;;;2.90;2.13;;;20.20;26.80;;;;;;5015233;28;20424;-78
2022/05/26 10:08:56;;;;;;;3.70;2.30;;;20.30;27.30;;;;;;5014195;28;20751;-78
2022/05/26 10:11:48;;;;;;;6.33;2.70;;;20.50;26.80;;;;;;5019138;28;20499;-80
2022/05/26 10:14:52;;;;;;;3.37;2.20;;;20.70;27.40;;;;;;5012354;28;20433;-78
2022/05/26 10:17:20;;;;;;;3.77;2.20;;;20.40;27.10;;;;;;4999759;28;20465;-79
2022/05/26 10:20:19;;;;;;;5.90;2.70;;;20.30;27.20;;;;;;5017119;28;20443;-76
2022/05/26 10:22:59;;;;;;;6.60;2.70;;;20.70;26.80;;;;;;5019354;28;20445;-78
2022/05/26 10:25:38;;;;;;;3.10;2.13;;;20.60;27.20;;;;;;5007466;28;20442;-75
2022/05/26 10:28:22;;;;;;;3.53;2.30;;;20.50;26.40;;;;;;5007389;28;20460;-74
2022/05/26 10:30:56;;;;;;;3.37;2.10;;;20.60;27.50;;;;;;5017882;28;20465;-75
2022/05/26 10:33:37;;;;;;;4.53;2.40;;;21.00;26.70;;;;;;5010899;28;20453;-76
2022/05/26 10:36:15;;;;;;;3.47;2.40;;;20.80;27.80;;;;;;5014717;28;20434;-76
2022/05/26 10:38:59;;;;;;;4.80;2.40;;;21.00;27.00;;;;;;5011538;28;20440;-78
2022/05/26 10:41:43;;;;;;;3.03;2.13;;;20.90;26.90;;;;;;5012696;28;20889;-77
2022/05/26 10:44:25;;;;;;;4.50;2.47;;;20.90;27.30;;;;;;5026085;28;20419;-78
2022/05/26 10:47:01;;;;;;;3.37;2.60;;;20.90;26.90;;;;;;5016964;28;20436;-78
2022/05/26 10:49:43;;;;;;;17.87;2.50;;;20.90;26.20;;;;;;5012287;28;20422;-76
2022/05/26 10:52:19;;;;;;;6.97;2.67;;;20.80;27.70;;;;;;5004460;28;20540;-78
2022/05/26 10:55:09;;;;;;;7.40;2.40;;;21.00;27.10;;;;;;5010970;28;20431;-77
2022/05/26 10:57:46;;;;;;;2.93;2.23;;;21.00;26.20;;;;;;4980900;28;20872;-77
2022/05/26 11:00:21;;;;;;;3.37;2.53;;;20.80;26.50;;;;;;5014053;28;20973;-77
2022/05/26 11:02:58;;;;;;;3.30;2.43;;;20.70;26.50;;;;;;5031526;28;20540;-77
2022/05/26 11:05:38;;;;;;;3.50;2.43;;;20.70;27.40;;;;;;5010874;28;20434;-76
2022/05/26 11:08:27;;;;;;;6.87;2.30;;;20.40;27.00;;;;;;5023424;28;20551;-76
2022/05/26 11:11:35;;;;;;;3.10;2.57;;;20.10;27.50;;;;;;5012529;28;20466;-77
2022/05/26 11:17:23;;;;;;;4.50;2.27;;;20.20;27.20;;;;;;5014468;28;20433;-75
2022/05/26 11:20:14;;;;;;;3.40;2.40;;;20.20;28.00;;;;;;5012345;28;20513;-77
2022/05/26 11:22:45;;;;;;;7.13;2.27;;;20.30;28.20;;;;;;5011923;28;20541;-77
2022/05/26 11:25:14;;;;;;;5.13;3.10;;;20.50;27.70;;;;;;5005150;28;20437;-76
2022/05/26 11:28:08;;;;;;;3.93;2.17;;;20.30;28.30;;;;;;5012222;28;20439;-76
2022/05/26 11:37:17;;;;;;;3.17;2.30;;;20.50;28.20;;;;;;5017564;28;20454;-76
2022/05/26 11:39:45;;;;;;;6.70;2.53;;;20.20;26.80;;;;;;4955799;29;20996;-78
2022/05/26 11:42:35;;;;;;;5.10;2.37;;;20.20;26.90;;;;;;4954525;28;20488;-77
2022/05/26 11:45:27;;;;;;;5.30;2.20;;;20.40;27.30;;;;;;4955449;29;21001;-78
2022/05/26 11:48:02;;;;;;;3.00;2.27;;;20.70;27.30;;;;;;4953504;29;20436;-77
2022/05/26 11:50:29;;;;;;;3.80;2.27;;;21.30;25.50;;;;;;4962760;29;20495;-77
2022/05/26 11:52:55;;;;;;;3.70;2.27;;;20.90;26.30;;;;;;4955165;29;20453;-78
2022/05/26 11:55:44;;;;;;;7.70;2.40;;;20.90;26.60;;;;;;4960676;29;20415;-78
2022/05/26 11:58:31;;;;;;;2.70;2.20;;;21.10;26.00;;;;;;4952063;28;20174;-77
2022/05/26 12:01:19;;;;;;;5.43;2.73;;;21.00;26.40;;;;;;4958024;28;20444;-76
2022/05/26 12:04:16;;;;;;;4.00;2.30;;;21.20;26.90;;;;;;4950904;28;20453;-76
2022/05/26 12:06:52;;;;;;;2.90;2.20;;;20.50;27.20;;;;;;4921633;29;20503;-76
2022/05/26 12:09:33;;;;;;;4.10;2.53;;;20.40;28.70;;;;;;4945010;29;20879;-76
2022/05/26 12:12:08;;;;;;;4.03;2.20;;;20.70;28.10;;;;;;4951290;29;20560;-77
2022/05/26 12:15:07;;;;;;;3.17;2.30;;;21.20;27.40;;;;;;4960906;28;20419;-77
2022/05/26 12:17:34;;;;;;;4.77;2.20;;;21.00;26.20;;;;;;4968544;28;20488;-78
2022/05/26 12:20:09;;;;;;;4.33;2.67;;;21.20;26.90;;;;;;4978562;28;20938;-75
2022/05/26 12:22:38;;;;;;;3.70;2.40;;;21.20;26.60;;;;;;4970546;28;20463;-78
2022/05/26 12:25:18;;;;;;;6.57;2.50;;;21.50;26.50;;;;;;4978577;28;20451;-76
2022/05/26 12:27:53;;;;;;;3.70;2.40;;;21.10;25.90;;;;;;4961504;28;20430;-73
2022/05/26 12:30:40;;;;;;;3.57;2.33;;;21.40;26.10;;;;;;4981381;28;20472;-77
2022/05/26 12:33:23;;;;;;;8.57;2.50;;;22.10;25.40;;;;;;4977177;28;20449;-76
2022/05/26 12:36:22;;;;;;;5.50;2.33;;;22.10;25.50;;;;;;4980626;28;20437;-77
2022/05/26 12:39:19;;;;;;;4.67;2.67;;;22.00;25.10;;;;;;4959130;28;20468;-78
2022/05/26 12:42:19;;;;;;;5.13;2.27;;;22.70;25.10;;;;;;4980542;28;20473;-75
2022/05/26 12:45:15;;;;;;;4.73;2.10;;;23.40;24.50;;;;;;4957396;28;20421;-78
2022/05/26 12:47:55;;;;;;;3.30;2.10;;;23.20;24.40;;;;;;4979661;28;20436;-77
2022/05/26 12:50:24;;;;;;;5.00;2.37;;;23.40;24.20;;;;;;4977174;28;20479;-78
2022/05/26 12:52:55;;;;;;;4.40;2.20;;;23.10;24.80;;;;;;4984892;28;20445;-78
2022/05/26 12:55:55;;;;;;;4.10;2.37;;;22.00;25.10;;;;;;5017551;28;20424;-78
2022/05/26 12:58:32;;;;;;;4.70;2.47;;;22.00;26.30;;;;;;5028227;28;20430;-78
2022/05/26 13:00:59;;;;;;;2.93;2.40;;;22.50;26.10;;;;;;5026496;28;20496;-78
2022/05/26 13:03:40;;;;;;;3.17;2.17;;;22.50;24.00;;;;;;5029788;28;20435;-77
2022/05/26 13:06:28;;;;;;;4.40;2.53;;;22.40;25.10;;;;;;5037360;28;20403;-79
2022/05/26 13:09:07;;;;;;;2.90;2.10;;;22.30;25.20;;;;;;5027295;28;20532;-77
2022/05/26 13:11:43;;;;;;;3.83;2.20;;;23.10;24.20;;;;;;5011639;28;20511;-77
2022/05/26 13:14:34;;;;;;;3.70;2.30;;;23.20;24.30;;;;;;5017106;28;20491;-77
2022/05/26 13:17:25;;;;;;;3.67;2.40;;;22.90;24.70;;;;;;5016119;28;20902;-77
2022/05/26 13:19:59;;;;;;;4.30;2.43;;;23.40;25.00;;;;;;5024465;28;20457;-77
2022/05/26 13:22:25;;;;;;;5.67;2.40;;;22.90;23.00;;;;;;5015519;28;20458;-77
2022/05/26 13:24:54;;;;;;;4.73;2.53;;;23.00;24.40;;;;;;5023088;28;20443;-79
2022/05/26 13:27:20;;;;;;;9.40;2.63;;;22.50;25.10;;;;;;5029980;28;20654;-78
2022/05/26 13:29:48;;;;;;;6.40;2.60;;;22.40;25.40;;;;;;5031428;28;20524;-77
2022/05/26 13:35:20;;;;;;;2.90;2.40;;;23.50;25.00;;;;;;5015732;28;20438;-78
2022/05/26 13:37:46;;;;;;;3.20;2.20;;;22.60;24.70;;;;;;5022020;28;20470;-79
2022/05/26 13:40:19;;;;;;;4.60;2.27;;;23.00;26.40;;;;;;5026083;28;20436;-78
2022/05/26 13:42:47;;;;;;;6.63;2.37;;;23.40;24.70;;;;;;5021597;28;20529;-79
2022/05/26 13:45:26;;;;;;;4.13;2.60;;;22.70;23.90;;;;;;5019138;28;20447;-79
2022/05/26 13:48:30;;;;;;;7.40;2.63;;;22.20;25.50;;;;;;5021811;28;20430;-77
2022/05/26 13:51:17;;;;;;;7.50;3.07;;;21.40;26.10;;;;;;4997910;28;20450;-78
2022/05/26 13:54:11;;;;;;;4.30;2.50;;;21.50;27.10;;;;;;5019913;28;20443;-77
2022/05/26 13:56:37;;;;;;;4.23;2.47;;;22.00;26.60;;;;;;4969291;28;20440;-78
2022/05/26 13:59:11;;;;;;;4.93;2.63;;;22.60;25.20;;;;;;5023770;28;21087;-77
2022/05/26 14:01:46;;;;;;;6.23;2.57;;;21.60;25.20;;;;;;5020038;28;20907;-77